Anchorage/Elmendorf AFB, Alaska
Current Conditions -  °F | °C
As of 4:58 AM on Saturday 01 Nov 2014 (Local Time) from PAED Reporting Station
Overcast Overcast  
Wind Chill: 20°   Ceiling: 8500
Heat Index: 27°   Visibility: 10mi
Dew Point: 18°   Wind: 7mph
Humidity: 68%   Direction: 50°NE
Pressure: 29.16"   Gusts: NA
Location:  61.25°N, 149.79°W
Report Text: PAED 011258Z AUTO 05006KT 10SM FEW070 OVC085 M03/M08 A2916 RMK AO2 SLP872 T10261078 $
Loading
Personal Weather Stations






























Interactive Weather Map
Tropical Storm Tracking
New forecast layout! Learn more

10-Day Weather Forecast

Advertisements
Track Severe Weather on mobile